sensor_id;sensor_type;location;lat;lon;timestamp;P1;durP1;ratioP1;P2;durP2;ratioP2
59416;SDS011;45222;52.458;20.914;2023-10-08T00:00:55;10.60;;;3.90;;
59416;SDS011;45222;52.458;20.914;2023-10-08T00:05:07;9.70;;;3.60;;
59416;SDS011;45222;52.458;20.914;2023-10-08T00:08:53;10.20;;;3.80;;
59416;SDS011;45222;52.458;20.914;2023-10-08T00:12:43;9.50;;;3.30;;
59416;SDS011;45222;52.458;20.914;2023-10-08T00:16:31;10.90;;;3.90;;
59416;SDS011;45222;52.458;20.914;2023-10-08T00:20:17;12.10;;;4.20;;
59416;SDS011;45222;52.458;20.914;2023-10-08T00:24:11;11.80;;;4.00;;
59416;SDS011;45222;52.458;20.914;2023-10-08T00:27:57;11.40;;;3.80;;
59416;SDS011;45222;52.458;20.914;2023-10-08T00:31:42;11.20;;;3.70;;
59416;SDS011;45222;52.458;20.914;2023-10-08T00:35:29;12.60;;;4.30;;
59416;SDS011;45222;52.458;20.914;2023-10-08T00:39:14;10.10;;;3.80;;
59416;SDS011;45222;52.458;20.914;2023-10-08T00:43:06;11.70;;;4.10;;
59416;SDS011;45222;52.458;20.914;2023-10-08T00:46:53;10.40;;;3.90;;
59416;SDS011;45222;52.458;20.914;2023-10-08T00:50:39;11.80;;;3.60;;
59416;SDS011;45222;52.458;20.914;2023-10-08T00:54:26;10.20;;;3.90;;
59416;SDS011;45222;52.458;20.914;2023-10-08T00:58:16;10.10;;;3.70;;
59416;SDS011;45222;52.458;20.914;2023-10-08T01:02:08;11.10;;;3.80;;
59416;SDS011;45222;52.458;20.914;2023-10-08T01:05:58;10.50;;;3.80;;
59416;SDS011;45222;52.458;20.914;2023-10-08T01:09:44;10.00;;;3.40;;
59416;SDS011;45222;52.458;20.914;2023-10-08T01:13:33;11.40;;;3.40;;
59416;SDS011;45222;52.458;20.914;2023-10-08T01:17:26;11.80;;;3.50;;
59416;SDS011;45222;52.458;20.914;2023-10-08T01:21:15;10.70;;;3.40;;
59416;SDS011;45222;52.458;20.914;2023-10-08T01:25:17;11.00;;;4.00;;
59416;SDS011;45222;52.458;20.914;2023-10-08T01:29:10;9.80;;;3.60;;
59416;SDS011;45222;52.458;20.914;2023-10-08T01:33:03;9.50;;;3.20;;
59416;SDS011;45222;52.458;20.914;2023-10-08T01:36:48;9.50;;;3.40;;
59416;SDS011;45222;52.458;20.914;2023-10-08T01:40:34;11.10;;;3.60;;
59416;SDS011;45222;52.458;20.914;2023-10-08T01:44:19;10.80;;;3.50;;
59416;SDS011;45222;52.458;20.914;2023-10-08T01:48:05;9.00;;;3.30;;
59416;SDS011;45222;52.458;20.914;2023-10-08T01:51:52;11.40;;;3.30;;
59416;SDS011;45222;52.458;20.914;2023-10-08T01:55:38;8.80;;;3.00;;
59416;SDS011;45222;52.458;20.914;2023-10-08T01:59:32;8.90;;;3.00;;
59416;SDS011;45222;52.458;20.914;2023-10-08T02:03:17;8.90;;;3.20;;
59416;SDS011;45222;52.458;20.914;2023-10-08T02:07:03;8.40;;;2.90;;
59416;SDS011;45222;52.458;20.914;2023-10-08T02:10:51;8.50;;;2.60;;
59416;SDS011;45222;52.458;20.914;2023-10-08T02:14:40;6.40;;;2.50;;
59416;SDS011;45222;52.458;20.914;2023-10-08T02:18:25;9.30;;;2.80;;
59416;SDS011;45222;52.458;20.914;2023-10-08T02:22:12;8.50;;;3.00;;
59416;SDS011;45222;52.458;20.914;2023-10-08T02:25:58;7.20;;;2.50;;
59416;SDS011;45222;52.458;20.914;2023-10-08T02:29:43;6.10;;;2.30;;
59416;SDS011;45222;52.458;20.914;2023-10-08T02:37:30;6.90;;;2.50;;
59416;SDS011;45222;52.458;20.914;2023-10-08T02:41:18;7.20;;;2.70;;
59416;SDS011;45222;52.458;20.914;2023-10-08T02:45:04;7.60;;;2.70;;
59416;SDS011;45222;52.458;20.914;2023-10-08T02:48:50;5.50;;;2.20;;
59416;SDS011;45222;52.458;20.914;2023-10-08T02:52:36;8.20;;;2.50;;
59416;SDS011;45222;52.458;20.914;2023-10-08T02:56:21;7.30;;;2.30;;
59416;SDS011;45222;52.458;20.914;2023-10-08T03:00:08;7.50;;;2.30;;
59416;SDS011;45222;52.458;20.914;2023-10-08T03:03:57;6.20;;;2.10;;
59416;SDS011;45222;52.458;20.914;2023-10-08T03:07:47;6.60;;;2.20;;
59416;SDS011;45222;52.458;20.914;2023-10-08T03:11:34;6.40;;;2.30;;
59416;SDS011;45222;52.458;20.914;2023-10-08T03:15:20;6.80;;;2.20;;
59416;SDS011;45222;52.458;20.914;2023-10-08T03:19:12;6.50;;;2.00;;
59416;SDS011;45222;52.458;20.914;2023-10-08T03:23:04;5.20;;;2.00;;
59416;SDS011;45222;52.458;20.914;2023-10-08T03:26:56;6.30;;;2.00;;
59416;SDS011;45222;52.458;20.914;2023-10-08T03:30:50;5.60;;;2.10;;
59416;SDS011;45222;52.458;20.914;2023-10-08T03:34:46;6.60;;;2.00;;
59416;SDS011;45222;52.458;20.914;2023-10-08T03:38:32;6.00;;;2.30;;
59416;SDS011;45222;52.458;20.914;2023-10-08T03:42:28;5.60;;;2.00;;
59416;SDS011;45222;52.458;20.914;2023-10-08T03:46:18;4.70;;;1.90;;
59416;SDS011;45222;52.458;20.914;2023-10-08T03:50:05;4.70;;;1.90;;
59416;SDS011;45222;52.458;20.914;2023-10-08T03:53:53;6.00;;;2.20;;
59416;SDS011;45222;52.458;20.914;2023-10-08T03:57:42;4.90;;;1.80;;
59416;SDS011;45222;52.458;20.914;2023-10-08T04:01:28;4.70;;;2.10;;
59416;SDS011;45222;52.458;20.914;2023-10-08T04:05:16;3.80;;;1.70;;
59416;SDS011;45222;52.458;20.914;2023-10-08T04:09:07;5.30;;;2.20;;
59416;SDS011;45222;52.458;20.914;2023-10-08T04:12:59;4.80;;;2.00;;
59416;SDS011;45222;52.458;20.914;2023-10-08T04:16:45;6.00;;;1.90;;
59416;SDS011;45222;52.458;20.914;2023-10-08T04:20:34;3.90;;;1.80;;
59416;SDS011;45222;52.458;20.914;2023-10-08T04:24:22;4.50;;;1.80;;
59416;SDS011;45222;52.458;20.914;2023-10-08T04:28:18;4.30;;;1.40;;
59416;SDS011;45222;52.458;20.914;2023-10-08T04:32:04;6.80;;;1.80;;
59416;SDS011;45222;52.458;20.914;2023-10-08T04:35:55;4.90;;;1.90;;
59416;SDS011;45222;52.458;20.914;2023-10-08T04:39:45;3.60;;;1.50;;
59416;SDS011;45222;52.458;20.914;2023-10-08T04:43:31;4.50;;;1.50;;
59416;SDS011;45222;52.458;20.914;2023-10-08T04:47:21;5.30;;;1.60;;
59416;SDS011;45222;52.458;20.914;2023-10-08T04:51:16;5.10;;;1.80;;
59416;SDS011;45222;52.458;20.914;2023-10-08T04:58:58;4.30;;;1.70;;
59416;SDS011;45222;52.458;20.914;2023-10-08T05:02:44;4.30;;;1.50;;
59416;SDS011;45222;52.458;20.914;2023-10-08T05:06:34;4.30;;;1.50;;
59416;SDS011;45222;52.458;20.914;2023-10-08T05:10:44;5.60;;;1.70;;
59416;SDS011;45222;52.458;20.914;2023-10-08T05:14:44;4.40;;;1.80;;
59416;SDS011;45222;52.458;20.914;2023-10-08T05:18:39;5.70;;;1.80;;
59416;SDS011;45222;52.458;20.914;2023-10-08T05:22:43;5.90;;;2.60;;
59416;SDS011;45222;52.458;20.914;2023-10-08T05:26:30;5.70;;;2.50;;
59416;SDS011;45222;52.458;20.914;2023-10-08T05:30:26;5.80;;;2.10;;
59416;SDS011;45222;52.458;20.914;2023-10-08T05:34:24;7.20;;;2.40;;
59416;SDS011;45222;52.458;20.914;2023-10-08T05:38:25;6.60;;;2.30;;
59416;SDS011;45222;52.458;20.914;2023-10-08T05:42:28;4.10;;;1.80;;
59416;SDS011;45222;52.458;20.914;2023-10-08T05:46:15;6.30;;;2.10;;
59416;SDS011;45222;52.458;20.914;2023-10-08T05:50:19;4.90;;;2.00;;
59416;SDS011;45222;52.458;20.914;2023-10-08T05:54:24;6.50;;;2.60;;
59416;SDS011;45222;52.458;20.914;2023-10-08T05:58:19;7.30;;;2.60;;
59416;SDS011;45222;52.458;20.914;2023-10-08T06:02:18;7.90;;;3.40;;
59416;SDS011;45222;52.458;20.914;2023-10-08T06:06:11;4.80;;;2.10;;
59416;SDS011;45222;52.458;20.914;2023-10-08T06:10:21;4.70;;;2.00;;
59416;SDS011;45222;52.458;20.914;2023-10-08T06:14:25;4.00;;;1.80;;
59416;SDS011;45222;52.458;20.914;2023-10-08T06:18:26;4.80;;;1.80;;
59416;SDS011;45222;52.458;20.914;2023-10-08T06:22:12;4.00;;;1.60;;
59416;SDS011;45222;52.458;20.914;2023-10-08T06:25:57;3.00;;;1.60;;
59416;SDS011;45222;52.458;20.914;2023-10-08T06:29:49;4.70;;;1.50;;
59416;SDS011;45222;52.458;20.914;2023-10-08T06:33:34;3.70;;;1.20;;
59416;SDS011;45222;52.458;20.914;2023-10-08T06:37:20;4.20;;;1.50;;
59416;SDS011;45222;52.458;20.914;2023-10-08T06:41:09;5.50;;;1.50;;
59416;SDS011;45222;52.458;20.914;2023-10-08T06:44:58;4.80;;;1.50;;
59416;SDS011;45222;52.458;20.914;2023-10-08T06:48:45;4.00;;;1.50;;
59416;SDS011;45222;52.458;20.914;2023-10-08T06:52:32;4.20;;;1.50;;
59416;SDS011;45222;52.458;20.914;2023-10-08T06:56:20;4.40;;;1.40;;
59416;SDS011;45222;52.458;20.914;2023-10-08T07:00:08;3.50;;;1.40;;
59416;SDS011;45222;52.458;20.914;2023-10-08T07:04:05;2.40;;;1.10;;
59416;SDS011;45222;52.458;20.914;2023-10-08T07:07:55;5.30;;;1.50;;
59416;SDS011;45222;52.458;20.914;2023-10-08T07:11:43;5.90;;;1.40;;
59416;SDS011;45222;52.458;20.914;2023-10-08T07:15:29;4.20;;;1.30;;
59416;SDS011;45222;52.458;20.914;2023-10-08T07:19:16;4.70;;;1.40;;
59416;SDS011;45222;52.458;20.914;2023-10-08T07:23:02;4.00;;;1.20;;
59416;SDS011;45222;52.458;20.914;2023-10-08T07:26:52;4.30;;;1.30;;
59416;SDS011;45222;52.458;20.914;2023-10-08T07:30:39;2.80;;;1.20;;
59416;SDS011;45222;52.458;20.914;2023-10-08T07:34:27;3.10;;;1.40;;
59416;SDS011;45222;52.458;20.914;2023-10-08T07:38:15;3.90;;;1.50;;
59416;SDS011;45222;52.458;20.914;2023-10-08T07:42:00;6.50;;;1.70;;
59416;SDS011;45222;52.458;20.914;2023-10-08T07:45:48;5.30;;;1.90;;
59416;SDS011;45222;52.458;20.914;2023-10-08T07:49:37;3.40;;;1.20;;
59416;SDS011;45222;52.458;20.914;2023-10-08T07:53:28;3.00;;;1.50;;
59416;SDS011;45222;52.458;20.914;2023-10-08T07:57:21;4.60;;;1.40;;
59416;SDS011;45222;52.458;20.914;2023-10-08T08:01:09;3.20;;;1.30;;
59416;SDS011;45222;52.458;20.914;2023-10-08T08:04:57;3.70;;;1.30;;
59416;SDS011;45222;52.458;20.914;2023-10-08T08:08:42;3.60;;;1.20;;
59416;SDS011;45222;52.458;20.914;2023-10-08T08:12:28;7.70;;;2.20;;
59416;SDS011;45222;52.458;20.914;2023-10-08T08:16:16;4.30;;;1.70;;
59416;SDS011;45222;52.458;20.914;2023-10-08T08:20:05;4.20;;;1.30;;
59416;SDS011;45222;52.458;20.914;2023-10-08T08:24:00;4.90;;;1.50;;
59416;SDS011;45222;52.458;20.914;2023-10-08T08:27:48;4.00;;;1.40;;
59416;SDS011;45222;52.458;20.914;2023-10-08T08:31:37;3.10;;;1.40;;
59416;SDS011;45222;52.458;20.914;2023-10-08T08:35:22;4.90;;;1.60;;
59416;SDS011;45222;52.458;20.914;2023-10-08T08:39:07;2.70;;;1.20;;
59416;SDS011;45222;52.458;20.914;2023-10-08T08:42:52;3.80;;;1.30;;
59416;SDS011;45222;52.458;20.914;2023-10-08T08:46:42;5.40;;;1.50;;
59416;SDS011;45222;52.458;20.914;2023-10-08T08:50:30;4.50;;;1.40;;
59416;SDS011;45222;52.458;20.914;2023-10-08T08:54:17;3.90;;;1.50;;
59416;SDS011;45222;52.458;20.914;2023-10-08T08:58:04;3.10;;;1.20;;
59416;SDS011;45222;52.458;20.914;2023-10-08T09:01:54;6.00;;;1.60;;
59416;SDS011;45222;52.458;20.914;2023-10-08T09:05:43;2.30;;;1.10;;
59416;SDS011;45222;52.458;20.914;2023-10-08T09:09:33;2.90;;;1.10;;
59416;SDS011;45222;52.458;20.914;2023-10-08T09:13:21;3.00;;;1.30;;
59416;SDS011;45222;52.458;20.914;2023-10-08T09:17:07;4.20;;;1.40;;
59416;SDS011;45222;52.458;20.914;2023-10-08T09:20:52;3.30;;;1.20;;
59416;SDS011;45222;52.458;20.914;2023-10-08T09:24:39;2.20;;;1.20;;
59416;SDS011;45222;52.458;20.914;2023-10-08T09:28:26;2.80;;;1.20;;
59416;SDS011;45222;52.458;20.914;2023-10-08T09:32:12;4.80;;;1.50;;
59416;SDS011;45222;52.458;20.914;2023-10-08T09:36:07;3.40;;;1.40;;
59416;SDS011;45222;52.458;20.914;2023-10-08T09:40:02;5.10;;;1.60;;
59416;SDS011;45222;52.458;20.914;2023-10-08T09:43:52;4.50;;;1.60;;
59416;SDS011;45222;52.458;20.914;2023-10-08T09:47:42;5.30;;;1.50;;
59416;SDS011;45222;52.458;20.914;2023-10-08T09:51:32;2.30;;;1.00;;
59416;SDS011;45222;52.458;20.914;2023-10-08T09:59:06;3.80;;;1.20;;
59416;SDS011;45222;52.458;20.914;2023-10-08T10:02:53;4.20;;;1.40;;
59416;SDS011;45222;52.458;20.914;2023-10-08T10:06:40;2.60;;;1.10;;
59416;SDS011;45222;52.458;20.914;2023-10-08T10:10:28;2.50;;;1.20;;
59416;SDS011;45222;52.458;20.914;2023-10-08T10:14:15;2.80;;;1.40;;
59416;SDS011;45222;52.458;20.914;2023-10-08T10:18:09;2.60;;;1.20;;
59416;SDS011;45222;52.458;20.914;2023-10-08T10:22:03;5.00;;;1.10;;
59416;SDS011;45222;52.458;20.914;2023-10-08T10:25:49;2.70;;;1.10;;
59416;SDS011;45222;52.458;20.914;2023-10-08T10:33:27;2.60;;;1.00;;
59416;SDS011;45222;52.458;20.914;2023-10-08T10:37:16;2.50;;;1.00;;
59416;SDS011;45222;52.458;20.914;2023-10-08T10:41:04;2.80;;;1.00;;
59416;SDS011;45222;52.458;20.914;2023-10-08T10:44:52;3.00;;;1.00;;
59416;SDS011;45222;52.458;20.914;2023-10-08T10:48:38;1.80;;;1.00;;
59416;SDS011;45222;52.458;20.914;2023-10-08T10:52:27;5.00;;;1.20;;
59416;SDS011;45222;52.458;20.914;2023-10-08T10:56:16;2.90;;;1.10;;
59416;SDS011;45222;52.458;20.914;2023-10-08T11:00:03;3.20;;;1.40;;
59416;SDS011;45222;52.458;20.914;2023-10-08T11:07:59;4.40;;;1.10;;
59416;SDS011;45222;52.458;20.914;2023-10-08T11:11:50;5.50;;;1.20;;
59416;SDS011;45222;52.458;20.914;2023-10-08T11:15:38;2.80;;;1.20;;
59416;SDS011;45222;52.458;20.914;2023-10-08T11:19:25;3.50;;;1.20;;
59416;SDS011;45222;52.458;20.914;2023-10-08T11:23:11;2.90;;;1.10;;
59416;SDS011;45222;52.458;20.914;2023-10-08T11:27:12;3.60;;;1.10;;
59416;SDS011;45222;52.458;20.914;2023-10-08T11:31:03;1.90;;;1.00;;
59416;SDS011;45222;52.458;20.914;2023-10-08T11:34:55;3.40;;;1.10;;
59416;SDS011;45222;52.458;20.914;2023-10-08T11:38:44;3.10;;;1.00;;
59416;SDS011;45222;52.458;20.914;2023-10-08T11:42:31;3.30;;;1.50;;
59416;SDS011;45222;52.458;20.914;2023-10-08T11:46:30;2.90;;;1.00;;
59416;SDS011;45222;52.458;20.914;2023-10-08T11:50:25;3.10;;;1.20;;
59416;SDS011;45222;52.458;20.914;2023-10-08T11:54:14;2.30;;;1.10;;
59416;SDS011;45222;52.458;20.914;2023-10-08T11:58:04;3.10;;;0.90;;
59416;SDS011;45222;52.458;20.914;2023-10-08T12:01:53;2.60;;;0.90;;
59416;SDS011;45222;52.458;20.914;2023-10-08T12:05:41;3.90;;;1.10;;
59416;SDS011;45222;52.458;20.914;2023-10-08T12:09:31;3.10;;;1.00;;
59416;SDS011;45222;52.458;20.914;2023-10-08T12:13:26;3.70;;;1.20;;
59416;SDS011;45222;52.458;20.914;2023-10-08T12:17:12;1.70;;;1.00;;
59416;SDS011;45222;52.458;20.914;2023-10-08T12:20:57;2.30;;;1.10;;
59416;SDS011;45222;52.458;20.914;2023-10-08T12:24:42;4.00;;;1.50;;
59416;SDS011;45222;52.458;20.914;2023-10-08T12:28:27;4.10;;;1.10;;
59416;SDS011;45222;52.458;20.914;2023-10-08T12:32:13;3.30;;;1.00;;
59416;SDS011;45222;52.458;20.914;2023-10-08T12:36:02;2.70;;;1.20;;
59416;SDS011;45222;52.458;20.914;2023-10-08T12:39:54;2.90;;;1.30;;
59416;SDS011;45222;52.458;20.914;2023-10-08T12:43:46;2.80;;;1.20;;
59416;SDS011;45222;52.458;20.914;2023-10-08T12:47:36;3.50;;;1.10;;
59416;SDS011;45222;52.458;20.914;2023-10-08T12:51:21;4.40;;;1.20;;
59416;SDS011;45222;52.458;20.914;2023-10-08T12:55:08;3.80;;;1.10;;
59416;SDS011;45222;52.458;20.914;2023-10-08T12:58:54;4.40;;;1.20;;
59416;SDS011;45222;52.458;20.914;2023-10-08T13:02:40;3.20;;;1.00;;
59416;SDS011;45222;52.458;20.914;2023-10-08T13:06:26;3.30;;;1.10;;
59416;SDS011;45222;52.458;20.914;2023-10-08T13:10:15;2.50;;;1.00;;
59416;SDS011;45222;52.458;20.914;2023-10-08T13:14:00;3.60;;;1.10;;
59416;SDS011;45222;52.458;20.914;2023-10-08T13:17:45;1.70;;;0.90;;
59416;SDS011;45222;52.458;20.914;2023-10-08T13:21:31;7.00;;;1.50;;
59416;SDS011;45222;52.458;20.914;2023-10-08T13:25:16;3.40;;;1.50;;
59416;SDS011;45222;52.458;20.914;2023-10-08T13:29:01;3.60;;;1.50;;
59416;SDS011;45222;52.458;20.914;2023-10-08T13:32:47;2.70;;;1.10;;
59416;SDS011;45222;52.458;20.914;2023-10-08T13:36:35;4.50;;;1.30;;
59416;SDS011;45222;52.458;20.914;2023-10-08T13:40:21;2.40;;;1.10;;
59416;SDS011;45222;52.458;20.914;2023-10-08T13:44:16;3.70;;;1.30;;
59416;SDS011;45222;52.458;20.914;2023-10-08T13:48:02;6.20;;;2.60;;
59416;SDS011;45222;52.458;20.914;2023-10-08T13:51:49;2.70;;;1.10;;
59416;SDS011;45222;52.458;20.914;2023-10-08T13:55:39;6.30;;;1.40;;
59416;SDS011;45222;52.458;20.914;2023-10-08T13:59:28;6.10;;;1.70;;
59416;SDS011;45222;52.458;20.914;2023-10-08T14:03:14;7.40;;;1.40;;
59416;SDS011;45222;52.458;20.914;2023-10-08T14:07:04;3.30;;;1.20;;
59416;SDS011;45222;52.458;20.914;2023-10-08T14:10:50;5.50;;;1.40;;
59416;SDS011;45222;52.458;20.914;2023-10-08T14:14:35;3.20;;;1.10;;
59416;SDS011;45222;52.458;20.914;2023-10-08T14:18:24;4.70;;;1.30;;
59416;SDS011;45222;52.458;20.914;2023-10-08T14:22:12;4.70;;;1.40;;
59416;SDS011;45222;52.458;20.914;2023-10-08T14:25:57;3.00;;;1.10;;
59416;SDS011;45222;52.458;20.914;2023-10-08T14:29:47;3.60;;;1.30;;
59416;SDS011;45222;52.458;20.914;2023-10-08T14:33:36;3.20;;;1.00;;
59416;SDS011;45222;52.458;20.914;2023-10-08T14:37:27;3.30;;;1.10;;
59416;SDS011;45222;52.458;20.914;2023-10-08T14:41:31;4.20;;;1.40;;
59416;SDS011;45222;52.458;20.914;2023-10-08T14:45:36;3.70;;;1.30;;
59416;SDS011;45222;52.458;20.914;2023-10-08T14:49:24;14.80;;;2.00;;
59416;SDS011;45222;52.458;20.914;2023-10-08T14:53:14;3.70;;;1.30;;
59416;SDS011;45222;52.458;20.914;2023-10-08T14:57:00;3.90;;;1.30;;
59416;SDS011;45222;52.458;20.914;2023-10-08T15:00:46;3.40;;;1.30;;
59416;SDS011;45222;52.458;20.914;2023-10-08T15:04:32;5.20;;;1.50;;
59416;SDS011;45222;52.458;20.914;2023-10-08T15:08:22;6.10;;;1.60;;
59416;SDS011;45222;52.458;20.914;2023-10-08T15:12:10;5.10;;;1.60;;
59416;SDS011;45222;52.458;20.914;2023-10-08T15:16:00;6.10;;;1.20;;
59416;SDS011;45222;52.458;20.914;2023-10-08T15:19:48;4.90;;;1.60;;
59416;SDS011;45222;52.458;20.914;2023-10-08T15:23:35;2.90;;;1.30;;
59416;SDS011;45222;52.458;20.914;2023-10-08T15:27:23;4.30;;;1.50;;
59416;SDS011;45222;52.458;20.914;2023-10-08T15:31:08;3.70;;;1.50;;
59416;SDS011;45222;52.458;20.914;2023-10-08T15:34:55;4.00;;;1.50;;
59416;SDS011;45222;52.458;20.914;2023-10-08T15:38:41;3.10;;;1.20;;
59416;SDS011;45222;52.458;20.914;2023-10-08T15:42:28;4.50;;;1.50;;
59416;SDS011;45222;52.458;20.914;2023-10-08T15:46:13;4.10;;;1.30;;
59416;SDS011;45222;52.458;20.914;2023-10-08T15:49:59;7.20;;;1.50;;
59416;SDS011;45222;52.458;20.914;2023-10-08T15:53:47;4.90;;;1.50;;
59416;SDS011;45222;52.458;20.914;2023-10-08T15:57:34;5.90;;;1.80;;
59416;SDS011;45222;52.458;20.914;2023-10-08T16:01:22;5.30;;;1.70;;
59416;SDS011;45222;52.458;20.914;2023-10-08T16:05:10;4.70;;;2.00;;
59416;SDS011;45222;52.458;20.914;2023-10-08T16:09:01;4.80;;;2.10;;
59416;SDS011;45222;52.458;20.914;2023-10-08T16:12:48;5.10;;;1.80;;
59416;SDS011;45222;52.458;20.914;2023-10-08T16:16:33;5.20;;;1.80;;
59416;SDS011;45222;52.458;20.914;2023-10-08T16:20:19;5.60;;;2.30;;
59416;SDS011;45222;52.458;20.914;2023-10-08T16:27:53;5.70;;;2.40;;
59416;SDS011;45222;52.458;20.914;2023-10-08T16:31:39;8.00;;;2.60;;
59416;SDS011;45222;52.458;20.914;2023-10-08T16:35:27;7.20;;;3.00;;
59416;SDS011;45222;52.458;20.914;2023-10-08T16:39:17;7.90;;;3.00;;
59416;SDS011;45222;52.458;20.914;2023-10-08T16:43:03;8.80;;;2.60;;
59416;SDS011;45222;52.458;20.914;2023-10-08T16:46:54;6.90;;;2.80;;
59416;SDS011;45222;52.458;20.914;2023-10-08T16:50:40;17.70;;;7.40;;
59416;SDS011;45222;52.458;20.914;2023-10-08T16:54:25;15.10;;;6.30;;
59416;SDS011;45222;52.458;20.914;2023-10-08T16:58:10;12.30;;;5.40;;
59416;SDS011;45222;52.458;20.914;2023-10-08T17:01:56;24.50;;;9.40;;
59416;SDS011;45222;52.458;20.914;2023-10-08T17:05:44;24.10;;;9.70;;
59416;SDS011;45222;52.458;20.914;2023-10-08T17:09:29;14.00;;;6.50;;
59416;SDS011;45222;52.458;20.914;2023-10-08T17:13:15;16.40;;;6.50;;
59416;SDS011;45222;52.458;20.914;2023-10-08T17:17:00;9.00;;;4.90;;
59416;SDS011;45222;52.458;20.914;2023-10-08T17:20:49;10.70;;;4.80;;
59416;SDS011;45222;52.458;20.914;2023-10-08T17:24:35;9.90;;;4.50;;
59416;SDS011;45222;52.458;20.914;2023-10-08T17:28:20;10.80;;;5.30;;
59416;SDS011;45222;52.458;20.914;2023-10-08T17:32:07;9.90;;;5.10;;
59416;SDS011;45222;52.458;20.914;2023-10-08T17:35:52;10.50;;;6.30;;
59416;SDS011;45222;52.458;20.914;2023-10-08T17:39:37;9.00;;;4.60;;
59416;SDS011;45222;52.458;20.914;2023-10-08T17:43:23;8.60;;;3.60;;
59416;SDS011;45222;52.458;20.914;2023-10-08T17:47:08;7.00;;;3.00;;
59416;SDS011;45222;52.458;20.914;2023-10-08T17:50:54;8.10;;;3.60;;
59416;SDS011;45222;52.458;20.914;2023-10-08T17:54:40;9.60;;;3.70;;
59416;SDS011;45222;52.458;20.914;2023-10-08T17:58:26;9.70;;;3.90;;
59416;SDS011;45222;52.458;20.914;2023-10-08T18:02:11;8.70;;;4.70;;
59416;SDS011;45222;52.458;20.914;2023-10-08T18:05:57;10.40;;;5.40;;
59416;SDS011;45222;52.458;20.914;2023-10-08T18:09:44;9.70;;;4.80;;
59416;SDS011;45222;52.458;20.914;2023-10-08T18:13:31;10.80;;;5.30;;
59416;SDS011;45222;52.458;20.914;2023-10-08T18:17:23;10.10;;;5.10;;
59416;SDS011;45222;52.458;20.914;2023-10-08T18:21:09;9.00;;;4.60;;
59416;SDS011;45222;52.458;20.914;2023-10-08T18:24:58;10.40;;;5.00;;
59416;SDS011;45222;52.458;20.914;2023-10-08T18:28:45;20.30;;;10.80;;
59416;SDS011;45222;52.458;20.914;2023-10-08T18:32:32;18.80;;;8.10;;
59416;SDS011;45222;52.458;20.914;2023-10-08T18:36:18;31.80;;;16.80;;
59416;SDS011;45222;52.458;20.914;2023-10-08T18:40:05;31.90;;;16.20;;
59416;SDS011;45222;52.458;20.914;2023-10-08T18:43:55;24.60;;;12.40;;
59416;SDS011;45222;52.458;20.914;2023-10-08T18:47:43;18.90;;;9.10;;
59416;SDS011;45222;52.458;20.914;2023-10-08T18:51:29;15.40;;;6.70;;
59416;SDS011;45222;52.458;20.914;2023-10-08T18:55:14;11.10;;;6.20;;
59416;SDS011;45222;52.458;20.914;2023-10-08T18:59:00;12.30;;;6.30;;
59416;SDS011;45222;52.458;20.914;2023-10-08T19:02:47;12.40;;;5.20;;
59416;SDS011;45222;52.458;20.914;2023-10-08T19:06:33;11.20;;;5.00;;
59416;SDS011;45222;52.458;20.914;2023-10-08T19:10:19;13.70;;;6.90;;
59416;SDS011;45222;52.458;20.914;2023-10-08T19:14:05;34.50;;;19.80;;
59416;SDS011;45222;52.458;20.914;2023-10-08T19:17:50;34.90;;;17.90;;
59416;SDS011;45222;52.458;20.914;2023-10-08T19:21:37;28.80;;;14.90;;
59416;SDS011;45222;52.458;20.914;2023-10-08T19:25:24;15.90;;;7.80;;
59416;SDS011;45222;52.458;20.914;2023-10-08T19:29:09;12.50;;;5.40;;
59416;SDS011;45222;52.458;20.914;2023-10-08T19:32:55;11.70;;;5.00;;
59416;SDS011;45222;52.458;20.914;2023-10-08T19:36:40;9.70;;;4.60;;
59416;SDS011;45222;52.458;20.914;2023-10-08T19:40:25;12.00;;;6.00;;
59416;SDS011;45222;52.458;20.914;2023-10-08T19:44:10;11.10;;;5.30;;
59416;SDS011;45222;52.458;20.914;2023-10-08T19:47:56;12.50;;;5.20;;
59416;SDS011;45222;52.458;20.914;2023-10-08T19:51:43;19.30;;;10.30;;
59416;SDS011;45222;52.458;20.914;2023-10-08T19:55:29;19.90;;;11.20;;
59416;SDS011;45222;52.458;20.914;2023-10-08T19:59:14;15.60;;;8.10;;
59416;SDS011;45222;52.458;20.914;2023-10-08T20:03:01;13.70;;;7.80;;
59416;SDS011;45222;52.458;20.914;2023-10-08T20:06:47;18.60;;;10.70;;
59416;SDS011;45222;52.458;20.914;2023-10-08T20:10:33;18.50;;;10.20;;
59416;SDS011;45222;52.458;20.914;2023-10-08T20:14:21;14.80;;;8.40;;
59416;SDS011;45222;52.458;20.914;2023-10-08T20:18:06;12.90;;;7.70;;
59416;SDS011;45222;52.458;20.914;2023-10-08T20:21:54;12.80;;;7.20;;
59416;SDS011;45222;52.458;20.914;2023-10-08T20:25:39;13.80;;;7.80;;
59416;SDS011;45222;52.458;20.914;2023-10-08T20:29:25;13.10;;;7.70;;
59416;SDS011;45222;52.458;20.914;2023-10-08T20:33:12;12.00;;;6.50;;
59416;SDS011;45222;52.458;20.914;2023-10-08T20:36:58;13.10;;;5.80;;
59416;SDS011;45222;52.458;20.914;2023-10-08T20:40:43;11.40;;;5.30;;
59416;SDS011;45222;52.458;20.914;2023-10-08T20:44:29;14.30;;;8.60;;
59416;SDS011;45222;52.458;20.914;2023-10-08T20:48:17;12.60;;;7.00;;
59416;SDS011;45222;52.458;20.914;2023-10-08T20:52:02;13.40;;;6.80;;
59416;SDS011;45222;52.458;20.914;2023-10-08T20:55:47;12.90;;;7.00;;
59416;SDS011;45222;52.458;20.914;2023-10-08T20:59:33;15.10;;;7.10;;
59416;SDS011;45222;52.458;20.914;2023-10-08T21:03:19;13.20;;;6.20;;
59416;SDS011;45222;52.458;20.914;2023-10-08T21:07:05;13.30;;;6.40;;
59416;SDS011;45222;52.458;20.914;2023-10-08T21:10:53;11.50;;;5.90;;
59416;SDS011;45222;52.458;20.914;2023-10-08T21:14:38;7.70;;;2.30;;
59416;SDS011;45222;52.458;20.914;2023-10-08T21:18:24;13.30;;;5.90;;
59416;SDS011;45222;52.458;20.914;2023-10-08T21:22:09;11.60;;;5.80;;
59416;SDS011;45222;52.458;20.914;2023-10-08T21:25:54;12.80;;;6.30;;
59416;SDS011;45222;52.458;20.914;2023-10-08T21:29:39;15.10;;;7.50;;
59416;SDS011;45222;52.458;20.914;2023-10-08T21:33:24;12.90;;;6.00;;
59416;SDS011;45222;52.458;20.914;2023-10-08T21:37:10;13.80;;;6.20;;
59416;SDS011;45222;52.458;20.914;2023-10-08T21:40:58;11.80;;;5.60;;
59416;SDS011;45222;52.458;20.914;2023-10-08T21:44:43;12.10;;;5.60;;
59416;SDS011;45222;52.458;20.914;2023-10-08T21:48:31;10.40;;;4.80;;
59416;SDS011;45222;52.458;20.914;2023-10-08T21:52:17;10.30;;;4.60;;
59416;SDS011;45222;52.458;20.914;2023-10-08T21:56:06;11.30;;;5.30;;
59416;SDS011;45222;52.458;20.914;2023-10-08T21:59:51;13.40;;;6.00;;
59416;SDS011;45222;52.458;20.914;2023-10-08T22:03:37;10.90;;;5.40;;
59416;SDS011;45222;52.458;20.914;2023-10-08T22:07:24;11.70;;;6.10;;
59416;SDS011;45222;52.458;20.914;2023-10-08T22:11:09;12.40;;;6.00;;
59416;SDS011;45222;52.458;20.914;2023-10-08T22:14:56;11.90;;;6.10;;
59416;SDS011;45222;52.458;20.914;2023-10-08T22:18:49;10.60;;;5.70;;
59416;SDS011;45222;52.458;20.914;2023-10-08T22:22:35;12.70;;;7.50;;
59416;SDS011;45222;52.458;20.914;2023-10-08T22:26:20;12.70;;;7.60;;
59416;SDS011;45222;52.458;20.914;2023-10-08T22:30:08;15.50;;;8.80;;
59416;SDS011;45222;52.458;20.914;2023-10-08T22:33:59;11.20;;;6.10;;
59416;SDS011;45222;52.458;20.914;2023-10-08T22:37:50;7.10;;;2.60;;
59416;SDS011;45222;52.458;20.914;2023-10-08T22:41:45;10.10;;;5.30;;
59416;SDS011;45222;52.458;20.914;2023-10-08T22:45:38;10.60;;;5.60;;
59416;SDS011;45222;52.458;20.914;2023-10-08T22:49:23;12.10;;;6.20;;
59416;SDS011;45222;52.458;20.914;2023-10-08T22:53:08;9.90;;;3.10;;